ADDS METAR Data INFO
IDs: Format: Raw Decoded Include TAF

Data at: 0154 UTC 18 Oct 2017

KAQO 180135Z AUTO 00000KT 10SM CLR 16/06 A3019 RMK AO2
KAQO 180115Z AUTO 00000KT 10SM CLR 17/06 A3019 RMK AO2
KAQO 180055Z AUTO 00000KT 10SM CLR 17/06 A3018 RMK AO2
KAQO 180035Z AUTO 00000KT 10SM CLR 19/06 A3018 RMK AO2
KAQO 180015Z AUTO 00000KT 10SM CLR 19/06 A3018 RMK AO2
KAQO 172355Z AUTO 00000KT 10SM CLR 22/06 A3018 RMK AO2
KAQO 172335Z AUTO 09003KT 10SM CLR 24/06 A3018 RMK AO2
KAQO 172315Z AUTO 00000KT 10SM CLR 25/06 A3018 RMK AO2
KAQO 172255Z AUTO 09003KT 10SM CLR 26/06 A3018 RMK AO2
KAQO 172235Z AUTO 00000KT 10SM CLR 26/06 A3018 RMK AO2
KAQO 172215Z AUTO 00000KT 10SM CLR 27/06 A3018 RMK AO2
KAQO 172155Z AUTO 00000KT 10SM CLR 27/06 A3019 RMK AO2
KAQO 172135Z AUTO 11004KT 10SM CLR 27/05 A3019 RMK AO2
KAQO 172115Z AUTO 15003KT 10SM CLR 26/04 A3020 RMK AO2
KAQO 172055Z AUTO 00000KT 10SM CLR 26/04 A3020 RMK AO2
KAQO 172035Z AUTO 00000KT 10SM CLR 26/04 A3021 RMK AO2
KAQO 172015Z AUTO 00000KT 10SM CLR 25/04 A3022 RMK AO2
KAQO 171955Z AUTO 00000KT 10SM CLR 26/04 A3023 RMK AO2
KAQO 171935Z AUTO 00000KT 10SM CLR 24/05 A3023 RMK AO2
KAQO 171915Z AUTO 00000KT 10SM CLR 24/04 A3025 RMK AO2
KAQO 171855Z AUTO 00000KT 10SM CLR 24/05 A3027 RMK AO2
KAQO 171835Z AUTO 09003KT 10SM CLR 24/06 A3028 RMK AO2
KAQO 171815Z AUTO 10004KT 10SM CLR 23/06 A3029 RMK AO2
KAQO 171755Z AUTO 00000KT 10SM CLR 23/05 A3030 RMK AO2
KAQO 171735Z AUTO 10004KT 9SM CLR 22/06 A3031 RMK AO2
KAQO 171715Z AUTO 00000KT 5SM HZ CLR 22/06 A3033 RMK AO2
KAQO 171655Z AUTO 00000KT 10SM CLR 21/06 A3034 RMK AO2
KAQO 171635Z AUTO 00000KT 10SM CLR 19/06 A3034 RMK AO2
KAQO 171615Z AUTO 12003KT 7SM CLR 19/06 A3035 RMK AO2
KAQO 171555Z AUTO 00000KT 9SM CLR 18/05 A3036 RMK AO2
KAQO 171535Z AUTO 00000KT 7SM CLR 17/04 A3036 RMK AO2
KAQO 171515Z AUTO 00000KT 10SM CLR 15/05 A3036 RMK AO2
KAQO 171455Z AUTO 00000KT 10SM CLR 13/06 A3036 RMK AO2
KAQO 171435Z AUTO 00000KT 10SM CLR 11/05 A3036 RMK AO2
KAQO 171415Z AUTO 00000KT 10SM CLR 09/04 A3036 RMK AO2
KAQO 171355Z AUTO 00000KT 10SM CLR 07/04 A3035 RMK AO2
KAQO 171335Z AUTO 00000KT 10SM CLR 06/04 A3035 RMK AO2
KAQO 171315Z AUTO 00000KT 10SM CLR 05/03 A3034 RMK AO2
KAQO 171255Z AUTO 00000KT 3SM BR CLR 03/02 A3034 RMK AO2
KAQO 171235Z AUTO 00000KT 7SM CLR 03/02 A3033 RMK AO2
KAQO 171215Z AUTO 00000KT 5SM BR CLR 03/02 A3033 RMK AO2
KAQO 171155Z AUTO 00000KT 10SM CLR 04/02 A3032 RMK AO2
KAQO 171135Z AUTO 00000KT 10SM CLR 04/03 A3032 RMK AO2
KAQO 171115Z AUTO 00000KT 10SM CLR 03/02 A3032 RMK AO2
KAQO 171055Z AUTO 00000KT 10SM CLR 03/02 A3032 RMK AO2
KAQO 171035Z AUTO 00000KT 10SM CLR 04/02 A3031 RMK AO2
KAQO 171015Z AUTO 00000KT 10SM CLR 04/03 A3031 RMK AO2
KAQO 170955Z AUTO 00000KT 10SM CLR 04/03 A3031 RMK AO2
KAQO 170935Z AUTO 00000KT 10SM CLR 04/03 A3031 RMK AO2
KAQO 170915Z AUTO 00000KT 5SM BR CLR 04/02 A3031 RMK AO2
KAQO 170855Z AUTO 00000KT 10SM CLR 05/03 A3032 RMK AO2
KAQO 170835Z AUTO 00000KT 10SM CLR 05/03 A3033 RMK AO2
KAQO 170815Z AUTO 00000KT 10SM CLR 06/03 A3033 RMK AO2
KAQO 170755Z AUTO 00000KT 10SM CLR 06/03 A3033 RMK AO2
KAQO 170735Z AUTO 00000KT 10SM CLR 06/04 A3033 RMK AO2
KAQO 170715Z AUTO 00000KT 10SM CLR 06/03 A3033 RMK AO2
KAQO 170655Z AUTO 00000KT 10SM CLR 06/04 A3033 RMK AO2
KAQO 170635Z AUTO 00000KT 10SM CLR 06/03 A3033 RMK AO2
KAQO 170615Z AUTO 00000KT 10SM CLR 07/04 A3033 RMK AO2
KAQO 170555Z AUTO 00000KT 10SM CLR 08/04 A3033 RMK AO2
KAQO 170535Z AUTO 00000KT 10SM CLR 08/04 A3034 RMK AO2
KAQO 170515Z AUTO 00000KT 10SM CLR 08/04 A3034 RMK AO2
KAQO 170455Z AUTO 00000KT 10SM CLR 07/04 A3034 RMK AO2
KAQO 170435Z AUTO 00000KT 10SM CLR 08/04 A3034 RMK AO2
KAQO 170415Z AUTO 00000KT 10SM CLR 09/04 A3034 RMK AO2
KAQO 170355Z AUTO 00000KT 10SM CLR 09/04 A3034 RMK AO2
KAQO 170335Z AUTO 00000KT 10SM CLR 11/04 A3033 RMK AO2
KAQO 170315Z AUTO 00000KT 10SM CLR 11/04 A3033 RMK AO2
KAQO 170255Z AUTO 00000KT 10SM CLR 12/04 A3033 RMK AO2
KAQO 170235Z AUTO 00000KT 10SM CLR 12/04 A3033 RMK AO2
KAQO 170215Z AUTO 00000KT 10SM CLR 12/04 A3033 RMK AO2
KAQO 170155Z AUTO 00000KT 10SM CLR 12/04 A3032 RMK AO2
KAQO 170135Z AUTO 00000KT 10SM CLR 13/04 A3032 RMK AO2
KAQO 170115Z AUTO 00000KT 10SM CLR 13/04 A3032 RMK AO2
KAQO 170055Z AUTO 00000KT 10SM CLR 16/03 A3031 RMK AO2
KAQO 170035Z AUTO 00000KT 3SM HZ CLR 17/02 A3031 RMK AO2
KAQO 170015Z AUTO 00000KT 1 1/2SM HZ CLR 20/01 A3030 RMK AO2 VSBY 3/4V3
KAQO 162355Z AUTO 00000KT 1SM HZ CLR 21/01 A3030 RMK AO2
KAQO 162335Z AUTO 00000KT 8SM CLR 23/00 A3029 RMK AO2
KAQO 162315Z AUTO 02005KT 10SM CLR 23/00 A3029 RMK AO2
KAQO 162255Z AUTO 03006KT 4SM HZ CLR 24/00 A3029 RMK AO2
KAQO 162235Z AUTO 01006KT 5SM HZ CLR 24/00 A3029 RMK AO2
KAQO 162215Z AUTO 02004KT 4SM HZ CLR 24/00 A3029 RMK AO2
KAQO 162155Z AUTO 03005KT 10SM CLR 24/00 A3029 RMK AO2
KAQO 162135Z AUTO 01003KT 3SM HZ CLR 24/00 A3029 RMK AO2
KAQO 162115Z AUTO 03009G14KT 3SM HZ CLR 25/00 A3030 RMK AO2
KAQO 162055Z AUTO 02007KT 10SM CLR 24/00 A3030 RMK AO2
KAQO 162035Z AUTO 04009KT 5SM HZ CLR 24/00 A3031 RMK AO2
KAQO 162015Z AUTO 01005KT 5SM HZ CLR 24/00 A3032 RMK AO2
KAQO 161955Z AUTO 03007KT 10SM CLR 23/00 A3033 RMK AO2
KAQO 161935Z AUTO 05006KT 10SM CLR 23/01 A3035 RMK AO2
KAQO 161915Z AUTO 03004KT 10SM CLR 23/01 A3036 RMK AO2
KAQO 161855Z AUTO 02005KT 10SM CLR 22/00 A3037 RMK AO2
KAQO 161835Z AUTO 36004KT 9SM CLR 22/01 A3039 RMK AO2
KAQO 161815Z AUTO 00000KT 10SM CLR 21/01 A3040 RMK AO2
KAQO 161755Z AUTO 00000KT 10SM CLR 21/02 A3041 RMK AO2
KAQO 161735Z AUTO 01005KT 10SM CLR 21/02 A3042 RMK AO2
KAQO 161715Z AUTO 01007KT 10SM CLR 20/02 A3044 RMK AO2
KAQO 161655Z AUTO 03009KT 10SM CLR 19/02 A3044 RMK AO2
KAQO 161635Z AUTO 04007G14KT 10SM CLR 19/03 A3045 RMK AO2
KAQO 161615Z AUTO 03007G14KT 10SM CLR 18/03 A3046 RMK AO2
KAQO 161555Z AUTO 03009G16KT 10SM CLR 18/03 A3046 RMK AO2
KAQO 161535Z AUTO 02010G15KT 10SM CLR 17/02 A3046 RMK AO2
KAQO 161515Z AUTO 03008G14KT 10SM CLR 17/03 A3046 RMK AO2
KAQO 161455Z AUTO 03006KT 10SM CLR 16/04 A3046 RMK AO2
KAQO 161435Z AUTO 02008KT 10SM CLR 15/04 A3046 RMK AO2
KAQO 161415Z AUTO 02007KT 10SM CLR 14/04 A3045 RMK AO2
KAQO 161355Z AUTO 01006KT 10SM CLR 12/05 A3045 RMK AO2